sensor_id;sensor_type;location;lat;lon;timestamp;P1;durP1;ratioP1;P2;durP2;ratioP2
9140;SDS011;46330;50.822;7.126;2022-09-21T00:00:46;8.65;;;4.70;;
9140;SDS011;46330;50.822;7.126;2022-09-21T00:03:14;8.02;;;4.88;;
9140;SDS011;46330;50.822;7.126;2022-09-21T00:05:42;7.65;;;4.38;;
9140;SDS011;46330;50.822;7.126;2022-09-21T00:08:12;13.05;;;4.63;;
9140;SDS011;46330;50.822;7.126;2022-09-21T00:10:40;13.18;;;4.82;;
9140;SDS011;46330;50.822;7.126;2022-09-21T00:13:10;12.48;;;5.10;;
9140;SDS011;46330;50.822;7.126;2022-09-21T00:15:38;13.00;;;5.93;;
9140;SDS011;46330;50.822;7.126;2022-09-21T00:18:08;12.90;;;5.45;;
9140;SDS011;46330;50.822;7.126;2022-09-21T00:20:39;13.32;;;5.57;;
9140;SDS011;46330;50.822;7.126;2022-09-21T00:23:08;12.82;;;5.25;;
9140;SDS011;46330;50.822;7.126;2022-09-21T00:25:36;13.43;;;5.47;;
9140;SDS011;46330;50.822;7.126;2022-09-21T00:28:04;13.13;;;5.00;;
9140;SDS011;46330;50.822;7.126;2022-09-21T00:30:33;8.98;;;4.80;;
9140;SDS011;46330;50.822;7.126;2022-09-21T00:33:01;10.75;;;4.80;;
9140;SDS011;46330;50.822;7.126;2022-09-21T00:35:29;11.40;;;4.68;;
9140;SDS011;46330;50.822;7.126;2022-09-21T00:37:59;10.20;;;4.78;;
9140;SDS011;46330;50.822;7.126;2022-09-21T00:40:27;9.25;;;5.13;;
9140;SDS011;46330;50.822;7.126;2022-09-21T00:43:09;7.60;;;4.50;;
9140;SDS011;46330;50.822;7.126;2022-09-21T00:45:39;7.85;;;4.65;;
9140;SDS011;46330;50.822;7.126;2022-09-21T00:48:08;9.63;;;4.80;;
9140;SDS011;46330;50.822;7.126;2022-09-21T00:50:36;7.40;;;4.65;;
9140;SDS011;46330;50.822;7.126;2022-09-21T00:53:07;7.80;;;4.88;;
9140;SDS011;46330;50.822;7.126;2022-09-21T00:55:35;9.35;;;5.05;;
9140;SDS011;46330;50.822;7.126;2022-09-21T00:58:08;7.13;;;4.10;;
9140;SDS011;46330;50.822;7.126;2022-09-21T01:00:42;8.50;;;4.47;;
9140;SDS011;46330;50.822;7.126;2022-09-21T01:03:11;7.70;;;4.55;;
9140;SDS011;46330;50.822;7.126;2022-09-21T01:05:39;8.40;;;4.40;;
9140;SDS011;46330;50.822;7.126;2022-09-21T01:08:07;8.05;;;5.05;;
9140;SDS011;46330;50.822;7.126;2022-09-21T01:10:40;10.65;;;5.00;;
9140;SDS011;46330;50.822;7.126;2022-09-21T01:13:32;7.07;;;4.45;;
9140;SDS011;46330;50.822;7.126;2022-09-21T01:16:10;7.35;;;4.53;;
9140;SDS011;46330;50.822;7.126;2022-09-21T01:18:42;12.82;;;5.13;;
9140;SDS011;46330;50.822;7.126;2022-09-21T01:21:17;11.65;;;5.35;;
9140;SDS011;46330;50.822;7.126;2022-09-21T01:23:52;12.65;;;4.93;;
9140;SDS011;46330;50.822;7.126;2022-09-21T01:26:56;10.32;;;4.97;;
9140;SDS011;46330;50.822;7.126;2022-09-21T01:29:46;11.38;;;5.63;;
9140;SDS011;46330;50.822;7.126;2022-09-21T01:32:21;8.95;;;5.28;;
9140;SDS011;46330;50.822;7.126;2022-09-21T01:34:52;9.35;;;5.00;;
9140;SDS011;46330;50.822;7.126;2022-09-21T01:37:28;9.20;;;4.93;;
9140;SDS011;46330;50.822;7.126;2022-09-21T01:39:59;9.32;;;5.00;;
9140;SDS011;46330;50.822;7.126;2022-09-21T01:42:31;10.07;;;5.18;;
9140;SDS011;46330;50.822;7.126;2022-09-21T01:45:02;9.20;;;5.18;;
9140;SDS011;46330;50.822;7.126;2022-09-21T01:47:34;10.40;;;5.72;;
9140;SDS011;46330;50.822;7.126;2022-09-21T01:50:04;8.98;;;5.07;;
9140;SDS011;46330;50.822;7.126;2022-09-21T01:52:36;12.20;;;5.05;;
9140;SDS011;46330;50.822;7.126;2022-09-21T01:55:09;10.35;;;5.05;;
9140;SDS011;46330;50.822;7.126;2022-09-21T01:57:42;11.38;;;5.10;;
9140;SDS011;46330;50.822;7.126;2022-09-21T02:00:17;7.13;;;4.95;;
9140;SDS011;46330;50.822;7.126;2022-09-21T02:02:45;9.00;;;5.57;;
9140;SDS011;46330;50.822;7.126;2022-09-21T02:05:18;8.60;;;5.72;;
9140;SDS011;46330;50.822;7.126;2022-09-21T02:07:49;9.18;;;5.40;;
9140;SDS011;46330;50.822;7.126;2022-09-21T02:10:20;11.52;;;6.68;;
9140;SDS011;46330;50.822;7.126;2022-09-21T02:12:51;14.07;;;5.47;;
9140;SDS011;46330;50.822;7.126;2022-09-21T02:15:23;9.93;;;6.03;;
9140;SDS011;46330;50.822;7.126;2022-09-21T02:17:58;9.02;;;5.60;;
9140;SDS011;46330;50.822;7.126;2022-09-21T02:20:33;10.80;;;5.53;;
9140;SDS011;46330;50.822;7.126;2022-09-21T02:23:05;7.68;;;5.03;;
9140;SDS011;46330;50.822;7.126;2022-09-21T02:25:45;7.18;;;5.28;;
9140;SDS011;46330;50.822;7.126;2022-09-21T02:28:21;11.10;;;5.78;;
9140;SDS011;46330;50.822;7.126;2022-09-21T02:31:00;8.95;;;5.40;;
9140;SDS011;46330;50.822;7.126;2022-09-21T02:33:36;9.10;;;5.50;;
9140;SDS011;46330;50.822;7.126;2022-09-21T02:36:14;7.90;;;5.50;;
9140;SDS011;46330;50.822;7.126;2022-09-21T02:38:49;9.43;;;4.88;;
9140;SDS011;46330;50.822;7.126;2022-09-21T02:41:22;14.18;;;5.85;;
9140;SDS011;46330;50.822;7.126;2022-09-21T02:43:57;10.73;;;5.30;;
9140;SDS011;46330;50.822;7.126;2022-09-21T02:46:31;10.45;;;5.50;;
9140;SDS011;46330;50.822;7.126;2022-09-21T02:49:04;9.82;;;5.38;;
9140;SDS011;46330;50.822;7.126;2022-09-21T02:51:38;8.82;;;5.57;;
9140;SDS011;46330;50.822;7.126;2022-09-21T02:54:10;8.73;;;5.55;;
9140;SDS011;46330;50.822;7.126;2022-09-21T02:56:42;9.00;;;5.35;;
9140;SDS011;46330;50.822;7.126;2022-09-21T02:59:14;17.05;;;5.65;;
9140;SDS011;46330;50.822;7.126;2022-09-21T03:01:44;17.00;;;5.65;;
9140;SDS011;46330;50.822;7.126;2022-09-21T03:04:12;13.02;;;5.38;;
9140;SDS011;46330;50.822;7.126;2022-09-21T03:06:40;16.10;;;5.82;;
9140;SDS011;46330;50.822;7.126;2022-09-21T03:09:07;14.73;;;5.72;;
9140;SDS011;46330;50.822;7.126;2022-09-21T03:11:35;13.00;;;6.03;;
9140;SDS011;46330;50.822;7.126;2022-09-21T03:14:04;11.07;;;5.45;;
9140;SDS011;46330;50.822;7.126;2022-09-21T03:16:34;11.13;;;5.43;;
9140;SDS011;46330;50.822;7.126;2022-09-21T03:19:03;10.73;;;5.50;;
9140;SDS011;46330;50.822;7.126;2022-09-21T03:21:31;10.95;;;5.68;;
9140;SDS011;46330;50.822;7.126;2022-09-21T03:23:59;15.63;;;5.57;;
9140;SDS011;46330;50.822;7.126;2022-09-21T03:26:27;19.08;;;6.15;;
9140;SDS011;46330;50.822;7.126;2022-09-21T03:28:55;21.50;;;6.38;;
9140;SDS011;46330;50.822;7.126;2022-09-21T03:31:23;20.50;;;5.95;;
9140;SDS011;46330;50.822;7.126;2022-09-21T03:33:51;24.23;;;5.60;;
9140;SDS011;46330;50.822;7.126;2022-09-21T03:36:20;39.45;;;5.30;;
9140;SDS011;46330;50.822;7.126;2022-09-21T03:38:48;25.92;;;5.63;;
9140;SDS011;46330;50.822;7.126;2022-09-21T03:41:15;23.50;;;5.82;;
9140;SDS011;46330;50.822;7.126;2022-09-21T03:43:44;31.33;;;5.57;;
9140;SDS011;46330;50.822;7.126;2022-09-21T03:46:11;21.55;;;5.63;;
9140;SDS011;46330;50.822;7.126;2022-09-21T03:48:39;30.90;;;5.40;;
9140;SDS011;46330;50.822;7.126;2022-09-21T03:51:07;29.63;;;5.82;;
9140;SDS011;46330;50.822;7.126;2022-09-21T03:53:37;13.65;;;5.07;;
9140;SDS011;46330;50.822;7.126;2022-09-21T03:56:04;23.60;;;5.53;;
9140;SDS011;46330;50.822;7.126;2022-09-21T03:58:32;33.50;;;5.80;;
9140;SDS011;46330;50.822;7.126;2022-09-21T04:01:00;20.95;;;6.07;;
9140;SDS011;46330;50.822;7.126;2022-09-21T04:03:29;24.60;;;6.05;;
9140;SDS011;46330;50.822;7.126;2022-09-21T04:05:56;14.55;;;6.35;;
9140;SDS011;46330;50.822;7.126;2022-09-21T04:08:24;13.20;;;5.80;;
9140;SDS011;46330;50.822;7.126;2022-09-21T04:10:54;16.17;;;5.47;;
9140;SDS011;46330;50.822;7.126;2022-09-21T04:13:22;21.52;;;5.75;;
9140;SDS011;46330;50.822;7.126;2022-09-21T04:15:50;38.25;;;5.93;;
9140;SDS011;46330;50.822;7.126;2022-09-21T04:18:18;22.10;;;6.43;;
9140;SDS011;46330;50.822;7.126;2022-09-21T04:20:46;17.33;;;5.95;;
9140;SDS011;46330;50.822;7.126;2022-09-21T04:23:13;13.25;;;5.80;;
9140;SDS011;46330;50.822;7.126;2022-09-21T04:25:42;11.85;;;5.35;;
9140;SDS011;46330;50.822;7.126;2022-09-21T04:28:11;20.65;;;5.72;;
9140;SDS011;46330;50.822;7.126;2022-09-21T04:30:39;25.30;;;5.75;;
9140;SDS011;46330;50.822;7.126;2022-09-21T04:33:07;19.85;;;5.90;;
9140;SDS011;46330;50.822;7.126;2022-09-21T04:35:35;19.08;;;5.50;;
9140;SDS011;46330;50.822;7.126;2022-09-21T04:38:02;13.02;;;5.80;;
9140;SDS011;46330;50.822;7.126;2022-09-21T04:40:30;12.70;;;5.53;;
9140;SDS011;46330;50.822;7.126;2022-09-21T04:42:58;14.48;;;6.13;;
9140;SDS011;46330;50.822;7.126;2022-09-21T04:45:27;9.63;;;6.28;;
9140;SDS011;46330;50.822;7.126;2022-09-21T04:47:55;14.90;;;5.32;;
9140;SDS011;46330;50.822;7.126;2022-09-21T04:50:23;21.17;;;5.22;;
9140;SDS011;46330;50.822;7.126;2022-09-21T04:53:01;21.00;;;5.18;;
9140;SDS011;46330;50.822;7.126;2022-09-21T04:55:29;23.05;;;4.95;;
9140;SDS011;46330;50.822;7.126;2022-09-21T04:57:57;14.82;;;5.18;;
9140;SDS011;46330;50.822;7.126;2022-09-21T05:00:25;37.53;;;5.28;;
9140;SDS011;46330;50.822;7.126;2022-09-21T05:02:54;23.92;;;4.72;;
9140;SDS011;46330;50.822;7.126;2022-09-21T05:05:23;15.18;;;5.03;;
9140;SDS011;46330;50.822;7.126;2022-09-21T05:07:51;10.93;;;5.38;;
9140;SDS011;46330;50.822;7.126;2022-09-21T05:10:19;14.75;;;6.03;;
9140;SDS011;46330;50.822;7.126;2022-09-21T05:12:46;14.73;;;5.65;;
9140;SDS011;46330;50.822;7.126;2022-09-21T05:15:14;18.58;;;6.05;;
9140;SDS011;46330;50.822;7.126;2022-09-21T05:17:42;10.88;;;5.68;;
9140;SDS011;46330;50.822;7.126;2022-09-21T05:20:11;12.93;;;5.78;;
9140;SDS011;46330;50.822;7.126;2022-09-21T05:22:39;14.00;;;5.60;;
9140;SDS011;46330;50.822;7.126;2022-09-21T05:25:08;11.27;;;6.30;;
9140;SDS011;46330;50.822;7.126;2022-09-21T05:27:36;18.48;;;6.40;;
9140;SDS011;46330;50.822;7.126;2022-09-21T05:30:04;22.98;;;7.00;;
9140;SDS011;46330;50.822;7.126;2022-09-21T05:32:36;18.50;;;6.82;;
9140;SDS011;46330;50.822;7.126;2022-09-21T05:35:14;13.57;;;7.05;;
9140;SDS011;46330;50.822;7.126;2022-09-21T05:37:51;15.23;;;6.50;;
9140;SDS011;46330;50.822;7.126;2022-09-21T05:40:23;13.02;;;6.57;;
9140;SDS011;46330;50.822;7.126;2022-09-21T05:42:52;16.10;;;7.00;;
9140;SDS011;46330;50.822;7.126;2022-09-21T05:45:21;12.95;;;6.93;;
9140;SDS011;46330;50.822;7.126;2022-09-21T05:47:52;18.30;;;7.45;;
9140;SDS011;46330;50.822;7.126;2022-09-21T05:53:20;49.47;;;7.95;;
9140;SDS011;46330;50.822;7.126;2022-09-21T05:55:56;61.33;;;7.47;;
9140;SDS011;46330;50.822;7.126;2022-09-21T05:58:27;33.67;;;8.43;;
9140;SDS011;46330;50.822;7.126;2022-09-21T06:01:07;21.17;;;8.20;;
9140;SDS011;46330;50.822;7.126;2022-09-21T06:03:47;13.77;;;8.35;;
9140;SDS011;46330;50.822;7.126;2022-09-21T06:06:17;31.48;;;8.93;;
9140;SDS011;46330;50.822;7.126;2022-09-21T06:08:46;25.75;;;8.65;;
9140;SDS011;46330;50.822;7.126;2022-09-21T06:11:14;27.42;;;8.70;;
9140;SDS011;46330;50.822;7.126;2022-09-21T06:13:42;27.27;;;8.88;;
9140;SDS011;46330;50.822;7.126;2022-09-21T06:16:09;17.50;;;9.00;;
9140;SDS011;46330;50.822;7.126;2022-09-21T06:18:37;23.67;;;9.60;;
9140;SDS011;46330;50.822;7.126;2022-09-21T06:21:06;33.30;;;8.75;;
9140;SDS011;46330;50.822;7.126;2022-09-21T06:23:36;21.00;;;9.02;;
9140;SDS011;46330;50.822;7.126;2022-09-21T06:26:04;22.10;;;9.75;;
9140;SDS011;46330;50.822;7.126;2022-09-21T06:28:32;16.52;;;9.82;;
9140;SDS011;46330;50.822;7.126;2022-09-21T06:31:00;22.30;;;9.70;;
9140;SDS011;46330;50.822;7.126;2022-09-21T06:33:27;17.92;;;9.60;;
9140;SDS011;46330;50.822;7.126;2022-09-21T06:35:55;17.70;;;9.80;;
9140;SDS011;46330;50.822;7.126;2022-09-21T06:38:25;16.58;;;9.75;;
9140;SDS011;46330;50.822;7.126;2022-09-21T06:40:59;16.10;;;9.25;;
9140;SDS011;46330;50.822;7.126;2022-09-21T06:43:29;17.63;;;9.70;;
9140;SDS011;46330;50.822;7.126;2022-09-21T06:45:57;16.55;;;9.77;;
9140;SDS011;46330;50.822;7.126;2022-09-21T06:48:27;14.80;;;9.00;;
9140;SDS011;46330;50.822;7.126;2022-09-21T06:50:56;18.90;;;10.07;;
9140;SDS011;46330;50.822;7.126;2022-09-21T06:53:25;15.45;;;9.82;;
9140;SDS011;46330;50.822;7.126;2022-09-21T06:55:53;18.35;;;9.85;;
9140;SDS011;46330;50.822;7.126;2022-09-21T06:58:27;17.55;;;10.65;;
9140;SDS011;46330;50.822;7.126;2022-09-21T07:00:56;14.25;;;9.25;;
9140;SDS011;46330;50.822;7.126;2022-09-21T07:03:24;17.60;;;9.65;;
9140;SDS011;46330;50.822;7.126;2022-09-21T07:05:52;22.55;;;10.50;;
9140;SDS011;46330;50.822;7.126;2022-09-21T07:08:20;14.50;;;10.15;;
9140;SDS011;46330;50.822;7.126;2022-09-21T07:11:08;17.92;;;10.63;;
9140;SDS011;46330;50.822;7.126;2022-09-21T07:13:38;19.05;;;10.77;;
9140;SDS011;46330;50.822;7.126;2022-09-21T07:16:06;14.38;;;10.02;;
9140;SDS011;46330;50.822;7.126;2022-09-21T07:18:35;15.38;;;10.15;;
9140;SDS011;46330;50.822;7.126;2022-09-21T07:21:09;16.13;;;10.27;;
9140;SDS011;46330;50.822;7.126;2022-09-21T07:23:38;19.42;;;14.15;;
9140;SDS011;46330;50.822;7.126;2022-09-21T07:26:06;28.38;;;17.40;;
9140;SDS011;46330;50.822;7.126;2022-09-21T07:28:38;36.40;;;21.65;;
9140;SDS011;46330;50.822;7.126;2022-09-21T07:31:06;33.70;;;22.90;;
9140;SDS011;46330;50.822;7.126;2022-09-21T07:33:35;16.98;;;10.85;;
9140;SDS011;46330;50.822;7.126;2022-09-21T07:36:03;14.68;;;9.85;;
9140;SDS011;46330;50.822;7.126;2022-09-21T07:38:36;14.27;;;8.95;;
9140;SDS011;46330;50.822;7.126;2022-09-21T07:41:05;13.02;;;8.45;;
9140;SDS011;46330;50.822;7.126;2022-09-21T07:43:33;13.38;;;8.45;;
9140;SDS011;46330;50.822;7.126;2022-09-21T07:46:06;10.50;;;7.18;;
9140;SDS011;46330;50.822;7.126;2022-09-21T07:48:34;14.10;;;7.70;;
9140;SDS011;46330;50.822;7.126;2022-09-21T07:51:02;11.00;;;7.22;;
9140;SDS011;46330;50.822;7.126;2022-09-21T07:53:32;10.63;;;7.13;;
9140;SDS011;46330;50.822;7.126;2022-09-21T07:56:00;10.13;;;6.45;;
9140;SDS011;46330;50.822;7.126;2022-09-21T07:58:28;9.57;;;6.32;;
9140;SDS011;46330;50.822;7.126;2022-09-21T08:01:15;9.90;;;6.60;;
9140;SDS011;46330;50.822;7.126;2022-09-21T08:03:43;9.98;;;6.88;;
9140;SDS011;46330;50.822;7.126;2022-09-21T08:06:11;10.75;;;6.72;;
9140;SDS011;46330;50.822;7.126;2022-09-21T08:08:39;10.60;;;6.65;;
9140;SDS011;46330;50.822;7.126;2022-09-21T08:11:07;9.88;;;6.50;;
9140;SDS011;46330;50.822;7.126;2022-09-21T08:13:37;7.95;;;6.30;;
9140;SDS011;46330;50.822;7.126;2022-09-21T08:16:05;9.48;;;6.80;;
9140;SDS011;46330;50.822;7.126;2022-09-21T08:18:36;9.65;;;6.65;;
9140;SDS011;46330;50.822;7.126;2022-09-21T08:21:06;8.48;;;6.13;;
9140;SDS011;46330;50.822;7.126;2022-09-21T08:23:37;12.60;;;6.20;;
9140;SDS011;46330;50.822;7.126;2022-09-21T08:26:09;9.52;;;6.10;;
9140;SDS011;46330;50.822;7.126;2022-09-21T08:31:14;9.45;;;6.13;;
9140;SDS011;46330;50.822;7.126;2022-09-21T08:33:46;8.88;;;6.10;;
9140;SDS011;46330;50.822;7.126;2022-09-21T08:36:15;8.25;;;5.93;;
9140;SDS011;46330;50.822;7.126;2022-09-21T08:38:43;9.23;;;6.00;;
9140;SDS011;46330;50.822;7.126;2022-09-21T08:41:15;7.93;;;5.50;;
9140;SDS011;46330;50.822;7.126;2022-09-21T08:43:46;11.27;;;5.80;;
9140;SDS011;46330;50.822;7.126;2022-09-21T08:46:19;9.85;;;5.55;;
9140;SDS011;46330;50.822;7.126;2022-09-21T08:48:52;7.28;;;4.90;;
9140;SDS011;46330;50.822;7.126;2022-09-21T08:51:25;7.68;;;5.10;;
9140;SDS011;46330;50.822;7.126;2022-09-21T08:53:57;8.93;;;4.82;;
9140;SDS011;46330;50.822;7.126;2022-09-21T08:56:27;8.18;;;4.80;;
9140;SDS011;46330;50.822;7.126;2022-09-21T08:59:15;8.32;;;4.53;;
9140;SDS011;46330;50.822;7.126;2022-09-21T09:01:47;9.48;;;4.80;;
9140;SDS011;46330;50.822;7.126;2022-09-21T09:04:35;6.32;;;4.40;;
9140;SDS011;46330;50.822;7.126;2022-09-21T09:07:19;7.20;;;3.97;;
9140;SDS011;46330;50.822;7.126;2022-09-21T09:10:00;6.32;;;3.85;;
9140;SDS011;46330;50.822;7.126;2022-09-21T09:12:41;8.75;;;3.50;;
9140;SDS011;46330;50.822;7.126;2022-09-21T09:15:23;4.55;;;3.40;;
9140;SDS011;46330;50.822;7.126;2022-09-21T09:18:04;4.82;;;3.20;;
9140;SDS011;46330;50.822;7.126;2022-09-21T09:20:38;8.68;;;3.60;;
9140;SDS011;46330;50.822;7.126;2022-09-21T09:23:10;4.38;;;2.80;;
9140;SDS011;46330;50.822;7.126;2022-09-21T09:25:42;4.53;;;2.60;;
9140;SDS011;46330;50.822;7.126;2022-09-21T09:28:16;5.78;;;2.63;;
9140;SDS011;46330;50.822;7.126;2022-09-21T09:30:53;5.43;;;3.08;;
9140;SDS011;46330;50.822;7.126;2022-09-21T09:33:26;6.38;;;3.00;;
9140;SDS011;46330;50.822;7.126;2022-09-21T09:36:01;7.45;;;3.08;;
9140;SDS011;46330;50.822;7.126;2022-09-21T09:38:31;6.45;;;2.63;;
9140;SDS011;46330;50.822;7.126;2022-09-21T09:41:07;4.40;;;2.60;;
9140;SDS011;46330;50.822;7.126;2022-09-21T09:44:04;6.78;;;2.63;;
9140;SDS011;46330;50.822;7.126;2022-09-21T09:46:48;7.63;;;2.58;;
9140;SDS011;46330;50.822;7.126;2022-09-21T09:49:29;3.58;;;2.35;;
9140;SDS011;46330;50.822;7.126;2022-09-21T09:52:06;4.15;;;2.22;;
9140;SDS011;46330;50.822;7.126;2022-09-21T09:54:37;5.78;;;2.58;;
9140;SDS011;46330;50.822;7.126;2022-09-21T09:57:05;6.30;;;2.08;;
9140;SDS011;46330;50.822;7.126;2022-09-21T09:59:36;5.38;;;2.45;;
9140;SDS011;46330;50.822;7.126;2022-09-21T10:02:17;4.40;;;2.10;;
9140;SDS011;46330;50.822;7.126;2022-09-21T10:04:55;5.63;;;2.20;;
9140;SDS011;46330;50.822;7.126;2022-09-21T10:07:34;6.38;;;2.13;;
9140;SDS011;46330;50.822;7.126;2022-09-21T10:10:20;7.28;;;2.40;;
9140;SDS011;46330;50.822;7.126;2022-09-21T10:13:09;6.15;;;2.00;;
9140;SDS011;46330;50.822;7.126;2022-09-21T10:15:40;3.83;;;1.85;;
9140;SDS011;46330;50.822;7.126;2022-09-21T10:18:16;3.92;;;1.70;;
9140;SDS011;46330;50.822;7.126;2022-09-21T10:20:51;4.15;;;1.90;;
9140;SDS011;46330;50.822;7.126;2022-09-21T10:23:23;3.50;;;1.25;;
9140;SDS011;46330;50.822;7.126;2022-09-21T10:25:53;4.40;;;1.27;;
9140;SDS011;46330;50.822;7.126;2022-09-21T10:28:22;4.25;;;1.70;;
9140;SDS011;46330;50.822;7.126;2022-09-21T10:30:58;4.10;;;1.60;;
9140;SDS011;46330;50.822;7.126;2022-09-21T10:33:42;5.47;;;1.60;;
9140;SDS011;46330;50.822;7.126;2022-09-21T10:36:25;2.22;;;1.38;;
9140;SDS011;46330;50.822;7.126;2022-09-21T10:38:57;4.40;;;1.20;;
9140;SDS011;46330;50.822;7.126;2022-09-21T10:41:37;2.70;;;1.13;;
9140;SDS011;46330;50.822;7.126;2022-09-21T10:44:10;2.42;;;1.00;;
9140;SDS011;46330;50.822;7.126;2022-09-21T10:46:43;2.63;;;1.30;;
9140;SDS011;46330;50.822;7.126;2022-09-21T10:49:14;2.63;;;1.00;;
9140;SDS011;46330;50.822;7.126;2022-09-21T10:51:47;2.60;;;1.15;;
9140;SDS011;46330;50.822;7.126;2022-09-21T10:54:19;2.70;;;1.00;;
9140;SDS011;46330;50.822;7.126;2022-09-21T10:56:51;2.53;;;1.00;;
9140;SDS011;46330;50.822;7.126;2022-09-21T10:59:21;5.10;;;1.13;;
9140;SDS011;46330;50.822;7.126;2022-09-21T11:01:52;3.45;;;1.05;;
9140;SDS011;46330;50.822;7.126;2022-09-21T11:04:27;3.95;;;1.27;;
9140;SDS011;46330;50.822;7.126;2022-09-21T11:07:00;2.25;;;0.93;;
9140;SDS011;46330;50.822;7.126;2022-09-21T11:09:33;3.08;;;0.98;;
9140;SDS011;46330;50.822;7.126;2022-09-21T11:12:06;3.22;;;0.85;;
9140;SDS011;46330;50.822;7.126;2022-09-21T11:14:52;1.92;;;0.77;;
9140;SDS011;46330;50.822;7.126;2022-09-21T11:17:31;3.97;;;0.90;;
9140;SDS011;46330;50.822;7.126;2022-09-21T11:20:05;2.90;;;0.80;;
9140;SDS011;46330;50.822;7.126;2022-09-21T11:22:44;2.20;;;0.90;;
9140;SDS011;46330;50.822;7.126;2022-09-21T11:25:33;1.85;;;0.70;;
9140;SDS011;46330;50.822;7.126;2022-09-21T11:28:09;3.00;;;0.80;;
9140;SDS011;46330;50.822;7.126;2022-09-21T11:30:45;2.15;;;1.05;;
9140;SDS011;46330;50.822;7.126;2022-09-21T11:33:37;4.10;;;1.05;;
9140;SDS011;46330;50.822;7.126;2022-09-21T11:36:19;3.78;;;1.30;;
9140;SDS011;46330;50.822;7.126;2022-09-21T11:38:54;2.08;;;0.80;;
9140;SDS011;46330;50.822;7.126;2022-09-21T11:44:11;2.58;;;1.00;;
9140;SDS011;46330;50.822;7.126;2022-09-21T11:46:47;3.42;;;1.00;;
9140;SDS011;46330;50.822;7.126;2022-09-21T11:49:28;2.55;;;0.70;;
9140;SDS011;46330;50.822;7.126;2022-09-21T11:52:16;2.72;;;1.00;;
9140;SDS011;46330;50.822;7.126;2022-09-21T11:55:21;9.13;;;1.00;;
9140;SDS011;46330;50.822;7.126;2022-09-21T11:58:26;3.72;;;1.00;;
9140;SDS011;46330;50.822;7.126;2022-09-21T12:01:07;4.35;;;1.23;;
9140;SDS011;46330;50.822;7.126;2022-09-21T12:03:42;2.25;;;1.10;;
9140;SDS011;46330;50.822;7.126;2022-09-21T12:06:20;4.50;;;1.13;;
9140;SDS011;46330;50.822;7.126;2022-09-21T12:09:01;2.17;;;0.90;;
9140;SDS011;46330;50.822;7.126;2022-09-21T12:11:48;3.67;;;1.10;;
9140;SDS011;46330;50.822;7.126;2022-09-21T12:14:24;3.58;;;0.77;;
9140;SDS011;46330;50.822;7.126;2022-09-21T12:17:00;3.90;;;0.77;;
9140;SDS011;46330;50.822;7.126;2022-09-21T12:19:36;3.55;;;1.08;;
9140;SDS011;46330;50.822;7.126;2022-09-21T12:22:12;1.63;;;0.80;;
9140;SDS011;46330;50.822;7.126;2022-09-21T12:24:46;2.58;;;0.88;;
9140;SDS011;46330;50.822;7.126;2022-09-21T12:27:20;2.53;;;1.00;;
9140;SDS011;46330;50.822;7.126;2022-09-21T12:29:56;1.77;;;0.70;;
9140;SDS011;46330;50.822;7.126;2022-09-21T12:32:32;3.08;;;1.05;;
9140;SDS011;46330;50.822;7.126;2022-09-21T12:35:13;1.88;;;0.63;;
9140;SDS011;46330;50.822;7.126;2022-09-21T12:37:44;3.42;;;0.95;;
9140;SDS011;46330;50.822;7.126;2022-09-21T12:40:17;3.85;;;1.00;;
9140;SDS011;46330;50.822;7.126;2022-09-21T12:42:56;2.63;;;0.60;;
9140;SDS011;46330;50.822;7.126;2022-09-21T12:45:31;2.30;;;0.85;;
9140;SDS011;46330;50.822;7.126;2022-09-21T12:48:05;3.40;;;0.80;;
9140;SDS011;46330;50.822;7.126;2022-09-21T12:50:38;2.90;;;0.88;;
9140;SDS011;46330;50.822;7.126;2022-09-21T12:53:11;6.35;;;2.35;;
9140;SDS011;46330;50.822;7.126;2022-09-21T12:55:47;3.38;;;0.80;;
9140;SDS011;46330;50.822;7.126;2022-09-21T12:58:22;3.20;;;0.90;;
9140;SDS011;46330;50.822;7.126;2022-09-21T13:01:04;2.55;;;0.95;;
9140;SDS011;46330;50.822;7.126;2022-09-21T13:03:44;2.17;;;0.70;;
9140;SDS011;46330;50.822;7.126;2022-09-21T13:09:16;3.35;;;0.77;;
9140;SDS011;46330;50.822;7.126;2022-09-21T13:11:50;3.15;;;0.75;;
9140;SDS011;46330;50.822;7.126;2022-09-21T13:14:22;3.15;;;0.93;;
9140;SDS011;46330;50.822;7.126;2022-09-21T13:16:57;3.47;;;0.80;;
9140;SDS011;46330;50.822;7.126;2022-09-21T13:19:29;2.15;;;0.65;;
9140;SDS011;46330;50.822;7.126;2022-09-21T13:22:12;3.90;;;1.10;;
9140;SDS011;46330;50.822;7.126;2022-09-21T13:24:56;1.67;;;0.73;;
9140;SDS011;46330;50.822;7.126;2022-09-21T13:30:28;3.30;;;0.60;;
9140;SDS011;46330;50.822;7.126;2022-09-21T13:32:59;2.70;;;0.90;;
9140;SDS011;46330;50.822;7.126;2022-09-21T13:38:27;2.22;;;0.60;;
9140;SDS011;46330;50.822;7.126;2022-09-21T13:40:59;2.40;;;0.80;;
9140;SDS011;46330;50.822;7.126;2022-09-21T13:49:01;1.67;;;0.70;;
9140;SDS011;46330;50.822;7.126;2022-09-21T13:51:32;2.50;;;0.73;;
9140;SDS011;46330;50.822;7.126;2022-09-21T13:54:01;3.03;;;0.60;;
9140;SDS011;46330;50.822;7.126;2022-09-21T13:56:30;1.98;;;0.88;;
9140;SDS011;46330;50.822;7.126;2022-09-21T13:58:58;3.60;;;0.90;;
9140;SDS011;46330;50.822;7.126;2022-09-21T14:01:29;1.90;;;0.60;;
9140;SDS011;46330;50.822;7.126;2022-09-21T14:04:18;2.72;;;0.90;;
9140;SDS011;46330;50.822;7.126;2022-09-21T14:06:49;4.93;;;1.10;;
9140;SDS011;46330;50.822;7.126;2022-09-21T14:09:20;3.03;;;0.90;;
9140;SDS011;46330;50.822;7.126;2022-09-21T14:11:54;1.67;;;0.52;;
9140;SDS011;46330;50.822;7.126;2022-09-21T14:14:26;1.13;;;0.60;;
9140;SDS011;46330;50.822;7.126;2022-09-21T14:16:57;5.07;;;0.82;;
9140;SDS011;46330;50.822;7.126;2022-09-21T14:22:38;1.80;;;0.60;;
9140;SDS011;46330;50.822;7.126;2022-09-21T14:25:24;1.33;;;0.50;;
9140;SDS011;46330;50.822;7.126;2022-09-21T14:27:58;1.27;;;0.75;;
9140;SDS011;46330;50.822;7.126;2022-09-21T14:30:30;4.63;;;1.00;;
9140;SDS011;46330;50.822;7.126;2022-09-21T14:35:48;2.72;;;0.90;;
9140;SDS011;46330;50.822;7.126;2022-09-21T14:38:20;2.00;;;0.75;;
9140;SDS011;46330;50.822;7.126;2022-09-21T14:40:51;3.45;;;1.02;;
9140;SDS011;46330;50.822;7.126;2022-09-21T14:43:23;2.58;;;0.70;;
9140;SDS011;46330;50.822;7.126;2022-09-21T14:46:09;0.98;;;0.65;;
9140;SDS011;46330;50.822;7.126;2022-09-21T14:49:09;1.60;;;0.60;;
9140;SDS011;46330;50.822;7.126;2022-09-21T14:51:47;2.42;;;0.85;;
9140;SDS011;46330;50.822;7.126;2022-09-21T14:54:41;1.90;;;0.40;;
9140;SDS011;46330;50.822;7.126;2022-09-21T15:00:17;1.45;;;0.52;;
9140;SDS011;46330;50.822;7.126;2022-09-21T15:02:50;1.00;;;0.60;;
9140;SDS011;46330;50.822;7.126;2022-09-21T15:05:33;0.63;;;0.40;;
9140;SDS011;46330;50.822;7.126;2022-09-21T15:08:10;1.10;;;0.30;;
9140;SDS011;46330;50.822;7.126;2022-09-21T15:11:13;0.80;;;0.50;;
9140;SDS011;46330;50.822;7.126;2022-09-21T15:13:50;1.95;;;0.60;;
9140;SDS011;46330;50.822;7.126;2022-09-21T15:16:37;0.88;;;0.50;;
9140;SDS011;46330;50.822;7.126;2022-09-21T15:19:10;2.78;;;0.73;;
9140;SDS011;46330;50.822;7.126;2022-09-21T15:21:47;2.42;;;0.52;;
9140;SDS011;46330;50.822;7.126;2022-09-21T15:24:17;1.38;;;0.50;;
9140;SDS011;46330;50.822;7.126;2022-09-21T15:26:49;2.20;;;0.50;;
9140;SDS011;46330;50.822;7.126;2022-09-21T15:29:19;1.60;;;0.63;;
9140;SDS011;46330;50.822;7.126;2022-09-21T15:31:51;4.22;;;0.60;;
9140;SDS011;46330;50.822;7.126;2022-09-21T15:34:20;2.28;;;0.63;;
9140;SDS011;46330;50.822;7.126;2022-09-21T15:36:49;2.97;;;0.70;;
9140;SDS011;46330;50.822;7.126;2022-09-21T15:39:22;1.48;;;0.70;;
9140;SDS011;46330;50.822;7.126;2022-09-21T15:41:55;1.65;;;0.65;;
9140;SDS011;46330;50.822;7.126;2022-09-21T15:44:43;0.80;;;0.60;;
9140;SDS011;46330;50.822;7.126;2022-09-21T15:47:14;1.42;;;0.60;;
9140;SDS011;46330;50.822;7.126;2022-09-21T15:49:45;3.75;;;1.05;;
9140;SDS011;46330;50.822;7.126;2022-09-21T15:52:16;0.70;;;0.40;;
9140;SDS011;46330;50.822;7.126;2022-09-21T15:54:51;3.28;;;0.57;;
9140;SDS011;46330;50.822;7.126;2022-09-21T15:57:27;2.15;;;0.60;;
9140;SDS011;46330;50.822;7.126;2022-09-21T16:00:04;2.85;;;0.82;;
9140;SDS011;46330;50.822;7.126;2022-09-21T16:02:48;1.75;;;0.70;;